Aérodrome :
LOGIN :

S'inscrire | Disclaimer

   EN    FR    IT 

 










Légende :    VFR   VFR Marginal   IFR   IFR Intensif   IFR Très Intensif
Visi : 
Plafond : 
>= 8 km
>= 3000ft
5 à 8 km
1000 à 3000 ft
1500m à 5 km
500 à 1000 ft
800 à 1500m
200 à 500 ft
< 800m
< 200 ft
Symboles :   Orages  Brouillard  Fortes neiges  Fortes précipitations  Vent > 20 kt
SIGMETs :   Divers  Orages  Givrage  Turbulence  Onde Orograph.  Cendres Volcan.






- Altitude de l'aérodrome : 1548 ft


LKNA - Náměšť Air Base

DERNIER METAR :
  • 182300Z 01005KT CAVOK 20/13 Q1023 RMK BLACK

METARs EXPIRÉS :
  • 182230Z 06003KT 030V090 CAVOK 20/14 Q1023 RMK BLACK
  • 182200Z 05004KT CAVOK 20/14 Q1023 RMK BLACK
  • 182130Z 03005KT CAVOK 21/14 Q1023 RMK BLACK
  • 182100Z 03006KT CAVOK 21/14 Q1023 RMK BLACK
  • 182030Z 05004KT CAVOK 22/14 Q1023 RMK BLACK
  • 182000Z 08004KT CAVOK 22/14 Q1023 RMK BLACK
  • 181930Z 06004KT CAVOK 23/14 Q1022 RMK BLACK
  • 181900Z 06004KT CAVOK 23/14 Q1022
  • 181830Z 06004KT CAVOK 24/14 Q1022 RMK BLACK

TAF TAF LKNA
Valide du 18 à 18h jusqu'au 19 à 18h UTC


181700Z 1818/1918 05006KT CAVOK
BECMG 1906/1908 11006KT



MET'MAP, la Météo Aéronautique d'un coup d'oeil ! - Copyright ORBIFLY Décembre 2007 - Disclaimer

ORBIFLY MET'MAP TEAM :

Programmation & Développement : Alexandra Zaïnal
Sur une idée originale de : Baudouin d'Aumeries
Soutien technique & logistique : Manuel Goepfert
Assistance : Marc-Olivier Méhu




SOURCES & CREDITS :

   NOAA